createdAt,value
2023-05-13T00:02:00.061Z,88.79
2023-05-13T00:04:26.985Z,88.69
2023-05-13T00:06:53.898Z,88.88
2023-05-13T00:09:20.766Z,88.83
2023-05-13T00:11:47.636Z,88.85
2023-05-13T00:14:14.694Z,89.04
2023-05-13T00:16:42.058Z,89.19
2023-05-13T00:19:09.441Z,89.12
2023-05-13T00:21:36.415Z,88.94
2023-05-13T00:24:03.441Z,89.28
2023-05-13T00:26:30.315Z,89.00
2023-05-13T00:28:57.202Z,89.17
2023-05-13T00:31:24.453Z,89.53
2023-05-13T00:33:51.389Z,89.50
2023-05-13T00:36:18.322Z,89.56
2023-05-13T00:38:45.313Z,89.69
2023-05-13T00:41:13.013Z,89.38
2023-05-13T00:43:39.878Z,89.64
2023-05-13T00:46:07.234Z,89.35
2023-05-13T00:48:34.666Z,89.71
2023-05-13T00:51:01.550Z,89.82
2023-05-13T00:53:28.567Z,90.13
2023-05-13T00:55:55.988Z,89.99
2023-05-13T00:58:22.912Z,90.08
2023-05-13T01:01:05.579Z,90.29
2023-05-13T01:04:00.084Z,89.96
2023-05-13T01:06:56.020Z,90.55
2023-05-13T01:09:31.770Z,90.58
2023-05-13T01:12:08.584Z,90.49
2023-05-13T01:14:45.286Z,90.67
2023-05-13T01:17:19.170Z,90.82
2023-05-13T01:19:53.056Z,90.58
2023-05-13T01:22:19.965Z,91.08
2023-05-13T01:24:47.012Z,91.22
2023-05-13T01:27:14.664Z,91.48
2023-05-13T01:29:41.643Z,91.62
2023-05-13T01:32:10.670Z,91.40
2023-05-13T01:34:39.884Z,91.70
2023-05-13T01:37:06.950Z,91.41
2023-05-13T01:39:37.813Z,91.53
2023-05-13T01:42:05.013Z,91.82
2023-05-13T01:44:32.032Z,91.94
2023-05-13T01:46:58.968Z,91.68
2023-05-13T01:49:26.282Z,91.62
2023-05-13T01:51:53.242Z,91.80
2023-05-13T01:54:20.207Z,91.54
2023-05-13T01:56:47.097Z,91.57
2023-05-13T01:59:14.034Z,91.87
2023-05-13T02:01:41.375Z,91.82
2023-05-13T02:04:08.456Z,91.66
2023-05-13T02:06:35.517Z,91.55
2023-05-13T02:09:02.453Z,91.73
2023-05-13T02:11:29.397Z,91.78
2023-05-13T02:13:56.452Z,91.59
2023-05-13T02:16:23.504Z,92.02
2023-05-13T02:18:50.575Z,91.97
2023-05-13T02:21:17.633Z,91.85
2023-05-13T02:23:44.713Z,91.74
2023-05-13T02:26:11.597Z,92.11
2023-05-13T02:28:38.598Z,91.98
2023-05-13T02:31:05.640Z,92.19
2023-05-13T02:33:32.621Z,92.30
2023-05-13T02:35:59.535Z,92.48
2023-05-13T02:38:26.443Z,92.50
2023-05-13T02:40:53.336Z,92.34
2023-05-13T02:43:20.716Z,92.49
2023-05-13T02:45:48.298Z,92.47
2023-05-13T02:48:16.147Z,92.88
2023-05-13T02:50:43.108Z,93.00
2023-05-13T02:53:10.007Z,92.83
2023-05-13T02:55:37.263Z,92.47
2023-05-13T02:58:04.874Z,92.89
2023-05-13T03:00:31.860Z,93.04
2023-05-13T03:02:59.140Z,92.77
2023-05-13T03:05:27.839Z,92.93
2023-05-13T03:07:58.064Z,92.61
2023-05-13T03:10:25.130Z,92.93
2023-05-13T03:12:52.100Z,92.86
2023-05-13T03:15:19.077Z,92.88
2023-05-13T03:17:46.105Z,92.74
2023-05-13T03:20:13.523Z,93.28
2023-05-13T03:22:40.805Z,93.09
2023-05-13T03:25:08.685Z,93.01
2023-05-13T03:27:36.007Z,93.10
2023-05-13T03:30:03.070Z,92.78
2023-05-13T03:32:31.762Z,93.04
2023-05-13T03:35:01.048Z,93.05
2023-05-13T03:37:28.033Z,93.24
2023-05-13T03:39:54.974Z,93.28
2023-05-13T03:42:23.555Z,93.24
2023-05-13T03:44:51.429Z,92.93
2023-05-13T03:47:18.409Z,93.22
2023-05-13T03:49:45.533Z,93.41
2023-05-13T03:52:12.423Z,93.61
2023-05-13T03:54:39.514Z,93.32
2023-05-13T03:57:08.494Z,93.34
2023-05-13T03:59:35.391Z,93.20
2023-05-13T04:02:02.338Z,93.17
2023-05-13T04:04:29.311Z,93.48
2023-05-13T04:06:56.295Z,93.32
2023-05-13T04:09:23.283Z,93.34
2023-05-13T04:11:50.292Z,93.32
2023-05-13T04:14:17.203Z,93.63
2023-05-13T04:16:44.129Z,93.40
2023-05-13T04:19:11.906Z,93.02
2023-05-13T04:21:38.904Z,93.57
2023-05-13T04:24:06.593Z,93.23
2023-05-13T04:26:33.677Z,93.07
2023-05-13T04:29:00.672Z,93.18
2023-05-13T04:31:27.652Z,93.34
2023-05-13T04:33:54.589Z,93.45
2023-05-13T04:36:21.493Z,93.59
2023-05-13T04:38:48.448Z,93.49
2023-05-13T04:41:15.357Z,93.52
2023-05-13T04:43:42.280Z,93.61
2023-05-13T04:46:09.335Z,93.67
2023-05-13T04:48:36.384Z,93.43
2023-05-13T04:51:04.018Z,93.42
2023-05-13T04:53:31.373Z,93.15
2023-05-13T04:56:01.139Z,93.25
2023-05-13T04:58:28.889Z,93.23
2023-05-13T05:00:55.870Z,93.40
2023-05-13T05:03:22.857Z,93.28
2023-05-13T05:05:49.976Z,93.37
2023-05-13T05:08:17.321Z,93.26
2023-05-13T05:10:44.270Z,92.98
2023-05-13T05:13:11.385Z,92.80
2023-05-13T05:15:38.311Z,93.15
2023-05-13T05:18:06.897Z,93.64
2023-05-13T05:20:33.958Z,93.42
2023-05-13T05:23:00.866Z,93.42
2023-05-13T05:25:28.837Z,93.39
2023-05-13T05:27:55.784Z,93.24
2023-05-13T05:30:22.995Z,93.24
2023-05-13T05:32:50.304Z,93.37
2023-05-13T05:35:19.922Z,93.49
2023-05-13T05:37:46.941Z,93.98
2023-05-13T05:40:14.344Z,93.75
2023-05-13T05:42:41.291Z,94.11
2023-05-13T05:45:09.021Z,93.59
2023-05-13T05:47:35.992Z,93.66
2023-05-13T05:50:02.957Z,93.90
2023-05-13T05:52:29.856Z,93.54
2023-05-13T05:54:56.836Z,93.41
2023-05-13T05:57:23.807Z,93.40
2023-05-13T05:59:51.557Z,93.34
2023-05-13T06:02:18.559Z,93.31
2023-05-13T06:04:45.500Z,93.40
2023-05-13T06:07:12.484Z,93.43
2023-05-13T06:09:39.469Z,93.33
2023-05-13T06:12:06.902Z,93.09
2023-05-13T06:14:33.775Z,93.01
2023-05-13T06:17:00.884Z,92.67
2023-05-13T06:19:27.828Z,92.35
2023-05-13T06:21:54.757Z,92.49
2023-05-13T06:24:21.818Z,92.40
2023-05-13T06:26:48.717Z,92.52
2023-05-13T06:29:15.635Z,92.51
2023-05-13T06:31:42.577Z,92.07
2023-05-13T06:34:16.649Z,92.00
2023-05-13T06:36:44.476Z,91.82
2023-05-13T06:39:12.735Z,91.52
2023-05-13T06:41:42.669Z,91.20
2023-05-13T06:44:10.210Z,90.92
2023-05-13T06:46:37.204Z,90.98
2023-05-13T06:49:04.121Z,90.47
2023-05-13T06:51:33.047Z,90.28
2023-05-13T06:54:00.067Z,90.71
2023-05-13T06:56:27.072Z,90.26
2023-05-13T06:58:54.000Z,90.18
2023-05-13T07:01:21.035Z,90.23
2023-05-13T07:03:48.063Z,90.25
2023-05-13T07:06:15.303Z,90.07
2023-05-13T07:08:42.241Z,90.43
2023-05-13T07:11:09.256Z,89.86
2023-05-13T07:13:36.194Z,89.33
2023-05-13T07:16:03.347Z,88.91
2023-05-13T07:18:30.448Z,89.03
2023-05-13T07:20:57.527Z,88.97
2023-05-13T07:23:24.981Z,89.24
2023-05-13T07:25:52.378Z,89.04
2023-05-13T07:28:22.097Z,89.00
2023-05-13T07:30:49.158Z,88.95
2023-05-13T07:33:16.117Z,88.31
2023-05-13T07:35:43.144Z,88.11
2023-05-13T07:38:11.433Z,88.00
2023-05-13T07:40:38.944Z,87.32
2023-05-13T07:43:06.249Z,87.63
2023-05-13T07:45:33.328Z,87.15
2023-05-13T07:48:00.557Z,87.49
2023-05-13T07:50:27.987Z,87.26
2023-05-13T07:52:55.070Z,86.98
2023-05-13T07:55:23.151Z,86.92
2023-05-13T07:57:50.247Z,86.83
2023-05-13T08:00:17.572Z,86.41
2023-05-13T08:02:45.025Z,86.54
2023-05-13T08:05:12.578Z,86.34
2023-05-13T08:07:39.578Z,85.91
2023-05-13T08:10:07.411Z,85.33
2023-05-13T08:12:34.459Z,85.82
2023-05-13T08:15:04.161Z,86.07
2023-05-13T08:17:31.117Z,85.34
2023-05-13T08:19:58.969Z,84.29
2023-05-13T08:22:26.976Z,84.30
2023-05-13T08:24:54.422Z,83.98
2023-05-13T08:27:21.370Z,84.52
2023-05-13T08:29:48.300Z,84.36
2023-05-13T08:32:15.272Z,84.50
2023-05-13T08:34:42.293Z,83.16
2023-05-13T08:37:09.192Z,83.19
2023-05-13T08:39:36.164Z,83.11
2023-05-13T08:42:04.525Z,82.26
2023-05-13T08:44:33.175Z,82.67
2023-05-13T08:47:33.268Z,82.54
2023-05-13T08:50:01.551Z,81.80
2023-05-13T08:52:28.690Z,81.55
2023-05-13T08:54:59.859Z,81.05
2023-05-13T08:57:28.135Z,81.07
2023-05-13T08:59:55.363Z,80.89
2023-05-13T09:02:23.523Z,81.95
2023-05-13T09:04:55.083Z,80.75
2023-05-13T09:07:22.545Z,80.29
2023-05-13T09:09:50.165Z,80.60
2023-05-13T09:12:42.950Z,80.98
2023-05-13T09:15:13.029Z,79.74
2023-05-13T09:17:45.855Z,78.93
2023-05-13T09:20:15.501Z,78.45
2023-05-13T09:22:53.297Z,78.54
2023-05-13T09:25:24.750Z,77.51
2023-05-13T09:28:04.091Z,78.36
2023-05-13T09:30:43.898Z,78.01
2023-05-13T09:33:16.208Z,78.21
2023-05-13T09:35:53.176Z,76.75
2023-05-13T09:38:34.921Z,76.97
2023-05-13T09:41:03.476Z,76.80
2023-05-13T09:43:34.225Z,76.12
2023-05-13T09:46:05.956Z,76.28
2023-05-13T09:48:34.442Z,76.10
2023-05-13T09:51:01.741Z,75.36
2023-05-13T09:53:29.191Z,73.14
2023-05-13T09:55:58.428Z,73.77
2023-05-13T09:58:31.318Z,72.85
2023-05-13T10:00:58.986Z,72.26
2023-05-13T10:03:26.370Z,72.27
2023-05-13T10:05:53.998Z,72.27
2023-05-13T10:08:22.552Z,72.52
2023-05-13T10:10:54.947Z,72.81
2023-05-13T10:13:25.259Z,72.80
2023-05-13T10:15:55.572Z,71.79
2023-05-13T10:18:29.371Z,71.37
2023-05-13T10:20:56.918Z,71.04
2023-05-13T10:23:24.787Z,70.55
2023-05-13T10:25:54.510Z,69.94
2023-05-13T10:28:21.803Z,69.83
2023-05-13T10:30:52.344Z,68.90
2023-05-13T10:33:30.816Z,68.89
2023-05-13T10:36:34.266Z,68.74
2023-05-13T10:39:52.448Z,67.87
2023-05-13T10:42:43.528Z,67.10
2023-05-13T10:45:11.482Z,66.46
2023-05-13T10:47:39.130Z,66.67
2023-05-13T10:50:23.520Z,66.66
2023-05-13T10:52:51.475Z,66.29
2023-05-13T10:55:20.878Z,66.30
2023-05-13T10:58:12.430Z,66.29
2023-05-13T11:00:43.177Z,66.82
2023-05-13T11:03:10.283Z,67.17
2023-05-13T11:05:59.541Z,66.63
2023-05-13T11:08:47.502Z,64.42
2023-05-13T11:11:35.132Z,64.99
2023-05-13T11:14:21.028Z,66.03
2023-05-13T11:16:54.880Z,66.01
2023-05-13T11:19:25.584Z,66.70
2023-05-13T11:21:58.638Z,66.53
2023-05-13T11:24:26.782Z,66.21
2023-05-13T11:26:57.008Z,65.45
2023-05-13T11:29:37.627Z,65.07
2023-05-13T11:32:07.092Z,64.95
2023-05-13T11:34:34.738Z,65.73
2023-05-13T11:37:04.675Z,65.48
2023-05-13T11:39:33.744Z,63.87
2023-05-13T11:42:05.381Z,64.14
2023-05-13T11:44:34.832Z,64.12
2023-05-13T11:47:08.832Z,65.28
2023-05-13T11:49:44.834Z,65.12
2023-05-13T11:52:20.421Z,63.39
2023-05-13T11:54:54.348Z,64.17
2023-05-13T11:57:26.301Z,64.34
2023-05-13T11:59:56.925Z,65.22
2023-05-13T12:02:30.402Z,64.79
2023-05-13T12:05:04.555Z,64.77
2023-05-13T12:07:32.957Z,64.60
2023-05-13T12:10:02.440Z,65.55
2023-05-13T12:12:31.759Z,63.36
2023-05-13T12:15:08.653Z,62.94
2023-05-13T12:17:36.014Z,62.55
2023-05-13T12:20:17.870Z,61.95
2023-05-13T12:22:44.762Z,62.26
2023-05-13T12:25:39.744Z,61.91
2023-05-13T12:28:18.854Z,61.87
2023-05-13T12:30:56.759Z,61.42
2023-05-13T12:33:41.476Z,61.54
2023-05-13T12:36:36.437Z,62.02
2023-05-13T12:39:09.893Z,62.20
2023-05-13T12:41:40.079Z,62.24
2023-05-13T12:44:16.481Z,61.09
2023-05-13T12:47:01.563Z,60.80
2023-05-13T12:49:28.656Z,61.18
2023-05-13T12:51:57.031Z,60.89
2023-05-13T12:54:23.968Z,61.85
2023-05-13T12:56:51.022Z,62.50
2023-05-13T12:59:19.393Z,62.47
2023-05-13T13:01:48.415Z,61.25
2023-05-13T13:04:17.098Z,60.32
2023-05-13T13:06:44.310Z,59.56
2023-05-13T13:09:11.328Z,59.80
2023-05-13T13:11:39.457Z,59.21
2023-05-13T13:14:06.468Z,58.47
2023-05-13T13:16:33.533Z,58.98
2023-05-13T13:19:01.933Z,58.24
2023-05-13T13:21:29.202Z,59.70
2023-05-13T13:23:56.137Z,60.17
2023-05-13T13:26:25.694Z,60.10
2023-05-13T13:28:53.026Z,60.09
2023-05-13T13:31:20.337Z,60.58
2023-05-13T13:33:47.247Z,61.70
2023-05-13T13:36:14.183Z,60.77
2023-05-13T13:38:41.156Z,60.63
2023-05-13T13:41:08.110Z,59.77
2023-05-13T13:43:35.047Z,59.77
2023-05-13T13:46:02.014Z,59.58
2023-05-13T13:48:29.039Z,58.61
2023-05-13T13:50:56.168Z,59.02
2023-05-13T13:53:23.114Z,58.49
2023-05-13T13:55:50.126Z,58.19
2023-05-13T13:58:17.098Z,57.80
2023-05-13T14:00:44.078Z,58.12
2023-05-13T14:03:11.066Z,58.15
2023-05-13T14:05:38.122Z,57.41
2023-05-13T14:08:05.388Z,56.45
2023-05-13T14:10:32.389Z,56.02
2023-05-13T14:12:59.424Z,57.34
2023-05-13T14:15:28.991Z,57.89
2023-05-13T14:17:56.265Z,57.78
2023-05-13T14:20:25.211Z,57.79
2023-05-13T14:22:52.195Z,57.42
2023-05-13T14:25:19.192Z,57.04
2023-05-13T14:27:46.084Z,57.41
2023-05-13T14:30:13.478Z,57.78
2023-05-13T14:32:45.345Z,58.19
2023-05-13T14:35:13.389Z,57.33
2023-05-13T14:37:41.160Z,57.66
2023-05-13T14:40:09.778Z,57.60
2023-05-13T14:42:36.845Z,57.08
2023-05-13T14:45:04.341Z,57.58
2023-05-13T14:47:31.274Z,57.10
2023-05-13T14:49:58.604Z,56.66
2023-05-13T14:52:25.782Z,57.10
2023-05-13T14:54:52.717Z,56.44
2023-05-13T14:57:19.748Z,56.65
2023-05-13T14:59:46.782Z,56.58
2023-05-13T15:02:17.562Z,56.52
2023-05-13T15:04:44.895Z,56.58
2023-05-13T15:07:11.842Z,56.48
2023-05-13T15:09:38.782Z,56.37
2023-05-13T15:12:06.968Z,56.61
2023-05-13T15:14:33.923Z,56.70
2023-05-13T15:17:00.920Z,57.03
2023-05-13T15:19:28.098Z,56.25
2023-05-13T15:21:55.007Z,56.83
2023-05-13T15:24:21.924Z,56.34
2023-05-13T15:26:50.852Z,56.32
2023-05-13T15:29:17.917Z,55.99
2023-05-13T15:31:44.862Z,56.43
2023-05-13T15:34:11.790Z,55.77
2023-05-13T15:36:38.696Z,55.62
2023-05-13T15:39:05.656Z,55.82
2023-05-13T15:41:32.662Z,55.21
2023-05-13T15:43:59.551Z,54.91
2023-05-13T15:46:26.713Z,55.38
2023-05-13T15:48:53.692Z,55.60
2023-05-13T15:51:21.013Z,55.40
2023-05-13T15:53:47.918Z,54.74
2023-05-13T15:56:14.959Z,54.91
2023-05-13T15:58:42.045Z,53.74
2023-05-13T16:01:08.989Z,53.35
2023-05-13T16:03:38.882Z,53.30
2023-05-13T16:06:06.185Z,53.29
2023-05-13T16:08:33.173Z,53.22
2023-05-13T16:11:00.262Z,53.38
2023-05-13T16:13:27.225Z,53.99
2023-05-13T16:15:54.525Z,54.12
2023-05-13T16:18:21.776Z,54.59
2023-05-13T16:20:48.713Z,54.48
2023-05-13T16:23:15.907Z,54.34
2023-05-13T16:25:43.429Z,54.25
2023-05-13T16:28:11.165Z,54.38
2023-05-13T16:30:38.861Z,53.19
2023-05-13T16:33:05.908Z,52.99
2023-05-13T16:35:32.941Z,53.49
2023-05-13T16:37:59.842Z,53.76
2023-05-13T16:40:26.769Z,54.11
2023-05-13T16:42:54.724Z,54.38
2023-05-13T16:45:23.500Z,54.48
2023-05-13T16:47:50.631Z,54.47
2023-05-13T16:50:17.589Z,54.35
2023-05-13T16:52:44.570Z,54.10
2023-05-13T16:55:13.658Z,53.70
2023-05-13T16:57:40.826Z,53.81
2023-05-13T17:00:08.649Z,53.88
2023-05-13T17:02:35.798Z,53.82
2023-05-13T17:05:02.829Z,53.70
2023-05-13T17:07:29.891Z,54.40
2023-05-13T17:09:56.963Z,54.54
2023-05-13T17:12:23.956Z,54.99
2023-05-13T17:14:50.869Z,55.17
2023-05-13T17:17:17.788Z,54.95
2023-05-13T17:19:44.794Z,55.25
2023-05-13T17:22:11.785Z,54.45
2023-05-13T17:24:40.079Z,53.89
2023-05-13T17:27:08.362Z,53.99
2023-05-13T17:29:35.304Z,53.81
2023-05-13T17:32:02.410Z,54.53
2023-05-13T17:34:29.342Z,55.05
2023-05-13T17:36:56.344Z,54.64
2023-05-13T17:39:23.328Z,54.63
2023-05-13T17:41:50.247Z,54.84
2023-05-13T17:44:17.465Z,55.09
2023-05-13T17:46:44.433Z,55.25
2023-05-13T17:49:11.552Z,55.84
2023-05-13T17:51:38.734Z,55.60
2023-05-13T17:54:05.748Z,55.79
2023-05-13T17:56:32.683Z,55.62
2023-05-13T17:58:59.608Z,56.11
2023-05-13T18:01:26.624Z,56.40
2023-05-13T18:03:53.621Z,56.15
2023-05-13T18:06:20.632Z,56.64
2023-05-13T18:08:47.609Z,56.84
2023-05-13T18:11:14.513Z,57.03
2023-05-13T18:13:41.422Z,57.33
2023-05-13T18:16:09.471Z,57.01
2023-05-13T18:18:37.118Z,57.37
2023-05-13T18:21:04.340Z,58.06
2023-05-13T18:23:32.930Z,58.39
2023-05-13T18:26:00.141Z,58.75
2023-05-13T18:28:27.073Z,59.03
2023-05-13T18:30:54.035Z,59.56
2023-05-13T18:33:21.946Z,59.88
2023-05-13T18:35:49.271Z,60.26
2023-05-13T18:38:16.427Z,60.64
2023-05-13T18:40:43.351Z,61.45
2023-05-13T18:43:10.301Z,62.16
2023-05-13T18:45:37.290Z,62.34
2023-05-13T18:48:04.805Z,62.54
2023-05-13T18:50:32.018Z,62.93
2023-05-13T18:52:58.949Z,63.02
2023-05-13T18:55:25.858Z,63.43
2023-05-13T18:57:52.825Z,63.63
2023-05-13T19:00:20.226Z,64.07
2023-05-13T19:02:47.329Z,64.58
2023-05-13T19:05:14.575Z,64.60
2023-05-13T19:07:41.639Z,64.91
2023-05-13T19:10:08.731Z,65.19
2023-05-13T19:12:35.754Z,65.33
2023-05-13T19:15:02.889Z,65.77
2023-05-13T19:17:31.345Z,65.84
2023-05-13T19:20:00.632Z,66.45
2023-05-13T19:22:27.675Z,66.80
2023-05-13T19:24:54.651Z,67.02
2023-05-13T19:27:22.349Z,67.36
2023-05-13T19:29:49.680Z,67.61
2023-05-13T19:32:16.885Z,68.02
2023-05-13T19:34:43.849Z,68.44
2023-05-13T19:37:10.920Z,68.62
2023-05-13T19:39:37.854Z,68.99
2023-05-13T19:42:04.992Z,69.49
2023-05-13T19:44:32.230Z,69.80
2023-05-13T19:46:59.323Z,69.93
2023-05-13T19:49:26.473Z,70.52
2023-05-13T19:51:53.785Z,70.61
2023-05-13T19:54:20.889Z,71.14
2023-05-13T19:56:47.898Z,71.76
2023-05-13T19:59:14.915Z,71.83
2023-05-13T20:01:42.292Z,72.22
2023-05-13T20:04:09.762Z,72.83
2023-05-13T20:06:37.062Z,73.72
2023-05-13T20:09:04.227Z,73.88
2023-05-13T20:11:31.707Z,74.18
2023-05-13T20:13:59.547Z,74.81
2023-05-13T20:16:26.806Z,75.73
2023-05-13T20:18:53.773Z,76.24
2023-05-13T20:21:20.843Z,76.42
2023-05-13T20:23:47.768Z,76.71
2023-05-13T20:26:14.746Z,76.90
2023-05-13T20:28:41.697Z,76.88
2023-05-13T20:31:08.696Z,77.78
2023-05-13T20:33:35.834Z,78.58
2023-05-13T20:36:02.850Z,78.90
2023-05-13T20:38:29.735Z,79.47
2023-05-13T20:40:56.663Z,80.94
2023-05-13T20:43:23.711Z,81.05
2023-05-13T20:45:50.747Z,81.86
2023-05-13T20:48:17.697Z,82.59
2023-05-13T20:50:44.613Z,82.56
2023-05-13T20:53:11.572Z,83.09
2023-05-13T20:55:38.473Z,83.60
2023-05-13T20:58:05.450Z,83.65
2023-05-13T21:00:32.362Z,83.92
2023-05-13T21:03:00.075Z,84.62
2023-05-13T21:05:27.229Z,84.58
2023-05-13T21:07:54.288Z,84.95
2023-05-13T21:10:21.805Z,85.19
2023-05-13T21:12:49.024Z,85.17
2023-05-13T21:15:16.910Z,85.08
2023-05-13T21:17:44.027Z,85.53
2023-05-13T21:20:12.077Z,85.42
2023-05-13T21:22:39.231Z,85.98
2023-05-13T21:25:07.300Z,85.56
2023-05-13T21:27:34.258Z,85.79
2023-05-13T21:30:01.277Z,85.85
2023-05-13T21:32:28.302Z,86.54
2023-05-13T21:34:56.544Z,86.83
2023-05-13T21:37:25.052Z,87.01
2023-05-13T21:39:52.034Z,87.42
2023-05-13T21:42:19.003Z,87.41
2023-05-13T21:44:46.239Z,87.74
2023-05-13T21:47:13.260Z,87.78
2023-05-13T21:49:40.291Z,87.45
2023-05-13T21:52:07.390Z,87.85
2023-05-13T21:54:34.307Z,88.02
2023-05-13T21:57:01.665Z,87.68
2023-05-13T21:59:28.603Z,87.84
2023-05-13T22:01:55.604Z,88.08
2023-05-13T22:04:25.636Z,87.87
2023-05-13T22:06:53.370Z,88.04
2023-05-13T22:09:20.431Z,87.79
2023-05-13T22:11:47.304Z,88.74
2023-05-13T22:14:14.426Z,88.45
2023-05-13T22:16:41.520Z,88.58
2023-05-13T22:19:08.691Z,88.65
2023-05-13T22:21:36.267Z,89.46
2023-05-13T22:24:05.267Z,89.71
2023-05-13T22:26:33.357Z,89.71
2023-05-13T22:29:00.302Z,90.00
2023-05-13T22:31:27.348Z,89.82
2023-05-13T22:33:54.427Z,90.07
2023-05-13T22:36:21.504Z,90.47
2023-05-13T22:38:48.459Z,90.43
2023-05-13T22:41:15.441Z,90.28
2023-05-13T22:43:42.328Z,90.62
2023-05-13T22:46:09.243Z,90.47
2023-05-13T22:48:36.223Z,90.79
2023-05-13T22:51:03.233Z,91.00
2023-05-13T22:53:30.167Z,90.54
2023-05-13T22:55:57.428Z,91.14
2023-05-13T22:58:24.327Z,91.03
2023-05-13T23:00:51.229Z,91.38
2023-05-13T23:03:18.160Z,91.89
2023-05-13T23:05:45.072Z,91.59
2023-05-13T23:08:12.702Z,91.53
2023-05-13T23:10:39.632Z,91.96
2023-05-13T23:13:06.574Z,91.88
2023-05-13T23:15:33.617Z,91.97
2023-05-13T23:18:00.747Z,92.63
2023-05-13T23:20:27.705Z,92.96
2023-05-13T23:22:55.729Z,92.27
2023-05-13T23:25:22.732Z,92.98
2023-05-13T23:27:51.533Z,92.89
2023-05-13T23:30:18.668Z,92.89
2023-05-13T23:32:46.511Z,93.51
2023-05-13T23:35:13.464Z,93.38
2023-05-13T23:37:40.639Z,93.67
2023-05-13T23:40:08.372Z,93.91
2023-05-13T23:42:35.305Z,93.78
2023-05-13T23:45:02.353Z,93.13
2023-05-13T23:47:30.130Z,94.02
2023-05-13T23:49:58.334Z,94.38
2023-05-13T23:52:25.304Z,94.31
2023-05-13T23:54:52.249Z,94.46
2023-05-13T23:57:19.467Z,95.30
2023-05-13T23:59:46.407Z,95.07
